RPi & Temperatures at JO21ut

Last graph updates: Thursday 25 May 2017 23:02 CEST

Sunrise: 05:27 & Sunset: 21:40 The Sun is currently not visible. [-13.59 degrees] and 151560408 Km from the Earth
Moonrise: 5:46 & Moonset: 21:01 New Moon The Moon is 363382 Km from the Earth
Find here more details on MARS.

23:49:32 up 19 days, 6:39, 0 users, load average: 0.60, 0.42, 0.35
Current CPU frequency is: 1000 Mhz
Current GPU temperature: 30.938°C
Current inside temperature is 21.9°C with a humidity of 58.3%
Second inside temperature is 21.9°C with a pressure of 1019.51 Hpa (29.87 inHg) and an uncorrected altitude of -51.99 m
ds18b20 now showing 21.4°C

All the sensors I use, DHT22 | BMP085 | MPU6050 | BH1750FVI | MMA7455 | HMC5883L | MPL3115A2 | DS1307 | HTU21 | AM2321 | DS3231 | INA219 , and it's current readout can be viewed here please be patient as it needs to read all sensors data. The page loads after about 10 seconds. In our forum more details can be found such as the used software/sources. Feel free to add yours also..


Pressure BMP085
Pressure BMP085
Pressure BMP085
Pressure BMP085
PI CPU Temp
Inet Volkel temp
Inside temp BMP085
Humidity BMP085
PI CPU Temp
Inet Volkel temp
Inside temp BMP085
Humidity BMP085
PI CPU Temp
Inet Volkel temp
Inside temp BMP085
Humidity BMP085
PI CPU Temp
Inet Volkel temp
Inside temp BMP085
Humidity BMP085
PI CPU Temp
Inet Volkel temp
Inside temp BMP085
Humidity BMP085
Inside light BH1750FV
Inside light BH1750FV
Inside light BH1750FV
Inside light BH1750FV
Inside light BH1750FV
Inside light BH1750FV
 

Sun & Moon height


Wijchen weather

Weer Widget
ScreenSaver yr.no

Sun Moon Earth


EHVK 252125Z AUTO 03003KT 9999 NCD 16/12 Q1023 BLU EHVK 252125Z AUTO 03003KT 9999 NCD 16/12 Q1023 BLU EHVK 252125Z AUTO 03003KT 9999 NCD 16/12 Q1023 BLU

Weather data from Volkel [NL] EHVK


25 minutes ago, at 21:25 UTC, the wind was blowing at a speed of 1.5 meters per second (3.5 miles per hour/3 knots) from North/Northeast (030) in Volkel [EHVK], Netherlands. The temperature was 16 °C (61 °F) with a dewpoint of 12 °C (54 °F), and the pressure was 1,023 hPa (30.21 inHg). The relative humidity was 77.1%. . The visibility was >10 kilometers (>6.2 miles).




View code:

Contact me  |  My Raspberry PI forum